Plano's Hourly Summary for Monday, May 14, 2018
Hour Temp
(f)
RH
(%)
Solar Rad.
(MJ/m2)
Rainfall
(in)
Wind
(mph)
5/14/2018 12:00 AM 80 59 0 0 2.82
5/14/2018 1:00 AM 79 61 0 0 3.4
5/14/2018 2:00 AM 78 64 0 0 3.61
5/14/2018 3:00 AM 76 68 0 0 2.29
5/14/2018 4:00 AM 75 72 0 0 2.12
5/14/2018 5:00 AM 74 75 0 0 2.5
5/14/2018 6:00 AM 73 77 0 0 2.99
5/14/2018 7:00 AM 73 80 0.02 0 3.88
5/14/2018 8:00 AM 73 76 0.3 0 3.25
5/14/2018 9:00 AM 75 72 0.89 0 4.91
5/14/2018 10:00 AM 76 68 1.05 0 5.61
5/14/2018 11:00 AM 78 61 1.82 0 5.74
5/14/2018 12:00 PM 81 57 2.04 0 4.77
5/14/2018 1:00 PM 83 53 2.59 0 5.16
5/14/2018 2:00 PM 85 50 2.6 0 4.74
5/14/2018 3:00 PM 86 48 2.12 0 4.76
5/14/2018 4:00 PM 87 47 2.08 0 4.4
5/14/2018 5:00 PM 88 45 2.31 0 4.39
5/14/2018 6:00 PM 87 46 1.22 0 4.68
5/14/2018 7:00 PM 86 49 0.81 0 4.51
5/14/2018 8:00 PM 84 51 0.11 0 4.12
5/14/2018 9:00 PM 82 54 0.01 0 3.17
5/14/2018 10:00 PM 81 59 0 0 2.88
5/14/2018 11:00 PM 80 61 0 0 3.34
Data Summary 80 60 19.97 0.00 3.92